Time;durP1;ratioP1;P1;durP2;ratioP2;P2;SDS_P1;SDS_P2;PMS_P1;PMS_P2;Temp;Humidity;BMP_temperature;BMP_pressure;BME280_temperature;BME280_humidity;BME280_pressure;Samples;Min_cycle;Max_cycle;Signal;HPM_P1;HPM_P2
2023/05/27 00:02:21;;;;;;;12.00;5.50;;;11.80;99.90;;;;;;5028254;28;20190;-73
2023/05/27 00:04:47;;;;;;;9.37;5.50;;;11.80;99.90;;;;;;5026070;28;20499;-74
2023/05/27 00:07:12;;;;;;;10.60;5.90;;;11.80;99.90;;;;;;5027444;28;20464;-74
2023/05/27 00:09:38;;;;;;;14.00;5.77;;;11.70;99.90;;;;;;5027770;28;20209;-74
2023/05/27 00:12:04;;;;;;;10.40;5.20;;;11.70;99.90;;;;;;5027763;28;20179;-74
2023/05/27 00:14:30;;;;;;;12.00;4.80;;;11.60;99.90;;;;;;5026628;28;20571;-74
2023/05/27 00:16:56;;;;;;;13.80;5.43;;;11.60;99.90;;;;;;5025213;28;20213;-74
2023/05/27 00:19:23;;;;;;;13.33;5.30;;;11.60;99.90;;;;;;5027495;28;20281;-73
2023/05/27 00:21:52;;;;;;;14.50;6.10;;;11.60;99.90;;;;;;5027678;28;20433;-74
2023/05/27 00:24:18;;;;;;;12.30;6.20;;;11.60;99.90;;;;;;5027718;28;20793;-73
2023/05/27 00:26:44;;;;;;;16.03;5.73;;;11.60;99.90;;;;;;5027430;28;20472;-74
2023/05/27 00:29:10;;;;;;;14.07;5.20;;;11.60;99.90;;;;;;5026549;28;20421;-74
2023/05/27 00:31:35;;;;;;;8.10;4.87;;;11.50;99.90;;;;;;5028635;28;20644;-74
2023/05/27 00:34:01;;;;;;;8.40;5.00;;;11.60;99.90;;;;;;5030972;28;20179;-74
2023/05/27 00:36:27;;;;;;;10.73;5.00;;;11.40;99.90;;;;;;5030947;28;20225;-74
2023/05/27 00:38:52;;;;;;;10.40;5.90;;;11.40;99.90;;;;;;5031149;28;20728;-73
2023/05/27 00:41:19;;;;;;;14.63;5.83;;;11.40;99.90;;;;;;5030630;28;20190;-73
2023/05/27 00:43:45;;;;;;;14.60;5.20;;;11.40;99.90;;;;;;5030973;28;20198;-73
2023/05/27 00:46:11;;;;;;;11.70;6.00;;;11.40;99.90;;;;;;5030708;28;20472;-73
2023/05/27 00:48:37;;;;;;;10.70;6.03;;;11.40;99.90;;;;;;5030807;28;20918;-74
2023/05/27 00:51:03;;;;;;;12.43;6.30;;;11.30;99.90;;;;;;5030561;28;20182;-73
2023/05/27 00:53:36;;;;;;;16.23;6.37;;;11.30;99.90;;;;;;5030811;28;20460;-73
2023/05/27 00:56:02;;;;;;;12.30;6.20;;;11.30;99.90;;;;;;5030970;28;20437;-74
2023/05/27 00:58:29;;;;;;;11.90;5.90;;;11.30;99.90;;;;;;5030676;28;20815;-74
2023/05/27 01:00:56;;;;;;;17.70;6.03;;;11.30;99.90;;;;;;5029469;28;20429;-73
2023/05/27 01:03:23;;;;;;;12.90;5.40;;;11.20;99.90;;;;;;5030503;28;20417;-74
2023/05/27 01:05:55;;;;;;;12.90;5.90;;;11.20;99.90;;;;;;5030275;28;20962;-73
2023/05/27 01:08:33;;;;;;;15.53;5.33;;;11.10;99.90;;;;;;5029374;28;20445;-74
2023/05/27 01:10:59;;;;;;;11.87;6.10;;;11.10;99.90;;;;;;5030450;28;20410;-73
2023/05/27 01:13:24;;;;;;;12.03;5.77;;;11.10;99.90;;;;;;5030392;28;20418;-74
2023/05/27 01:15:53;;;;;;;9.43;5.10;;;10.90;99.90;;;;;;5029224;28;20171;-74
2023/05/27 01:18:22;;;;;;;15.93;5.47;;;10.90;99.90;;;;;;5030249;28;20179;-73
2023/05/27 01:20:51;;;;;;;12.30;6.57;;;10.90;99.90;;;;;;5030143;28;20464;-73
2023/05/27 01:23:17;;;;;;;16.40;6.13;;;10.90;99.90;;;;;;5030152;28;20429;-73
2023/05/27 01:25:43;;;;;;;16.43;6.20;;;10.90;99.90;;;;;;5030226;28;20748;-73
2023/05/27 01:28:08;;;;;;;10.77;5.47;;;10.90;99.90;;;;;;5030103;28;20421;-74
2023/05/27 01:30:35;;;;;;;11.07;5.53;;;10.80;99.90;;;;;;5030094;28;20260;-73
2023/05/27 01:33:08;;;;;;;13.57;5.87;;;10.80;99.90;;;;;;5029916;28;20198;-73
2023/05/27 01:35:41;;;;;;;8.97;6.03;;;10.80;99.90;;;;;;5030054;28;20455;-74
2023/05/27 01:38:10;;;;;;;12.60;5.57;;;10.70;99.90;;;;;;5030190;28;20421;-73
2023/05/27 01:40:38;;;;;;;10.20;5.37;;;10.70;99.90;;;;;;5029715;28;20429;-72
2023/05/27 01:43:05;;;;;;;11.40;5.60;;;10.80;99.90;;;;;;5029740;28;20425;-74
2023/05/27 01:45:33;;;;;;;14.87;6.83;;;10.70;99.90;;;;;;5030094;28;20421;-73
2023/05/27 01:47:58;;;;;;;10.13;6.43;;;10.70;99.90;;;;;;5029710;28;20555;-73
2023/05/27 01:50:24;;;;;;;12.50;5.67;;;10.60;99.90;;;;;;5029756;28;20515;-74
2023/05/27 01:52:50;;;;;;;11.60;6.00;;;10.60;99.90;;;;;;5029671;28;20174;-74
2023/05/27 01:55:17;;;;;;;15.03;5.50;;;10.50;99.90;;;;;;5029664;28;20202;-73
2023/05/27 01:57:43;;;;;;;12.90;5.67;;;10.60;99.90;;;;;;5029429;28;20527;-74
2023/05/27 02:00:09;;;;;;;14.90;7.13;;;10.50;99.90;;;;;;5028523;28;20429;-73
2023/05/27 02:02:36;;;;;;;13.23;6.30;;;10.50;99.90;;;;;;5029580;28;20428;-73
2023/05/27 02:05:02;;;;;;;10.67;6.10;;;10.40;99.90;;;;;;5027966;28;20832;-73
2023/05/27 02:07:28;;;;;;;15.10;5.97;;;10.40;99.90;;;;;;5029236;28;20996;-73
2023/05/27 02:09:53;;;;;;;12.87;6.00;;;10.40;99.90;;;;;;5029591;28;20413;-73
2023/05/27 02:12:19;;;;;;;12.93;7.20;;;10.40;99.90;;;;;;5029707;28;20631;-73
2023/05/27 02:14:45;;;;;;;10.33;5.23;;;10.40;99.90;;;;;;5029622;28;20190;-74
2023/05/27 02:17:14;;;;;;;12.00;5.80;;;10.30;99.90;;;;;;5027877;28;20437;-73
2023/05/27 02:19:40;;;;;;;11.60;5.87;;;10.30;99.90;;;;;;5027709;28;20948;-73
2023/05/27 02:22:06;;;;;;;12.30;7.27;;;10.30;99.90;;;;;;5029617;28;20542;-74
2023/05/27 02:24:32;;;;;;;11.20;6.17;;;10.40;99.90;;;;;;5029093;28;20842;-73
2023/05/27 02:26:58;;;;;;;15.30;6.40;;;10.30;99.90;;;;;;5028616;28;20476;-73
2023/05/27 02:29:24;;;;;;;13.13;5.77;;;10.30;99.90;;;;;;5025421;28;20247;-73
2023/05/27 02:31:50;;;;;;;12.00;6.30;;;10.30;99.90;;;;;;5029051;28;20500;-73
2023/05/27 02:34:16;;;;;;;8.77;5.70;;;10.20;99.90;;;;;;5028871;28;20647;-73
2023/05/27 02:36:42;;;;;;;14.43;7.30;;;10.20;99.90;;;;;;5028583;28;20819;-73
2023/05/27 02:39:09;;;;;;;11.43;6.10;;;10.10;99.90;;;;;;5029040;28;20193;-73
2023/05/27 02:41:34;;;;;;;9.73;6.03;;;10.10;99.90;;;;;;5028704;28;20476;-73
2023/05/27 02:44:00;;;;;;;11.77;6.10;;;10.10;99.90;;;;;;5028737;28;20520;-73
2023/05/27 02:46:26;;;;;;;12.20;5.20;;;10.10;99.90;;;;;;5028903;28;20214;-74
2023/05/27 02:48:51;;;;;;;14.23;6.10;;;10.00;99.90;;;;;;5019170;28;20186;-74
2023/05/27 02:51:17;;;;;;;14.40;6.83;;;10.00;99.90;;;;;;5028697;28;20550;-73
2023/05/27 02:53:42;;;;;;;19.80;7.30;;;10.00;99.90;;;;;;5027972;28;20187;-72
2023/05/27 02:56:08;;;;;;;14.40;6.23;;;9.90;99.90;;;;;;5029113;28;20566;-73
2023/05/27 02:58:34;;;;;;;23.53;6.83;;;9.80;99.90;;;;;;5028269;28;20198;-73
2023/05/27 03:00:59;;;;;;;13.87;6.40;;;9.90;99.90;;;;;;5027194;28;20205;-73
2023/05/27 03:03:25;;;;;;;14.20;5.57;;;9.90;99.90;;;;;;5028317;28;20214;-73
2023/05/27 03:05:51;;;;;;;18.23;6.20;;;9.90;99.90;;;;;;5023103;28;20571;-73
2023/05/27 03:08:16;;;;;;;15.07;6.40;;;9.90;99.90;;;;;;5028284;28;20178;-73
2023/05/27 03:10:42;;;;;;;13.73;5.97;;;9.90;99.90;;;;;;5028326;28;20682;-74
2023/05/27 03:13:08;;;;;;;16.93;6.53;;;9.90;99.90;;;;;;5027026;28;20178;-73
2023/05/27 03:15:35;;;;;;;14.90;6.83;;;9.90;99.90;;;;;;5028570;28;20178;-74
2023/05/27 03:18:02;;;;;;;21.20;6.17;;;9.90;99.90;;;;;;5028029;28;20202;-73
2023/05/27 03:20:27;;;;;;;11.70;5.80;;;9.90;99.90;;;;;;5028344;28;20429;-73
2023/05/27 03:22:53;;;;;;;12.70;6.50;;;9.80;99.90;;;;;;5028457;28;20433;-73
2023/05/27 03:25:19;;;;;;;11.30;6.83;;;9.80;99.90;;;;;;5028331;28;20190;-74
2023/05/27 03:27:45;;;;;;;13.57;6.33;;;9.80;99.90;;;;;;5028005;28;20488;-74
2023/05/27 03:30:11;;;;;;;11.43;6.67;;;9.80;99.90;;;;;;5028137;28;20421;-73
2023/05/27 03:32:36;;;;;;;12.67;6.47;;;9.90;99.90;;;;;;5016995;28;20190;-73
2023/05/27 03:35:02;;;;;;;13.60;7.23;;;9.80;99.90;;;;;;5008608;28;20414;-73
2023/05/27 03:37:28;;;;;;;15.53;6.50;;;9.80;99.90;;;;;;5007254;28;20217;-73
2023/05/27 03:39:54;;;;;;;14.63;5.90;;;9.80;99.90;;;;;;5008768;28;20421;-73
2023/05/27 03:42:20;;;;;;;10.87;6.30;;;9.70;99.90;;;;;;5016047;28;20193;-73
2023/05/27 03:44:45;;;;;;;10.47;6.40;;;9.70;99.90;;;;;;5027957;28;20622;-74
2023/05/27 03:47:11;;;;;;;13.30;6.93;;;9.70;99.90;;;;;;5027156;28;20229;-74
2023/05/27 03:49:37;;;;;;;16.73;7.10;;;9.70;99.90;;;;;;5028162;28;20421;-73
2023/05/27 03:52:03;;;;;;;10.73;5.93;;;9.60;99.90;;;;;;5027759;28;20654;-73
2023/05/27 03:54:29;;;;;;;11.30;6.27;;;9.60;99.90;;;;;;5028174;28;20224;-73
2023/05/27 03:56:55;;;;;;;11.80;6.70;;;9.70;99.90;;;;;;5028263;28;20731;-73
2023/05/27 03:59:21;;;;;;;13.70;6.53;;;9.70;99.90;;;;;;5028022;28;20417;-74
2023/05/27 04:01:47;;;;;;;11.80;7.20;;;9.70;99.90;;;;;;5028386;28;20205;-73
2023/05/27 04:04:13;;;;;;;14.43;7.17;;;9.70;99.90;;;;;;5027609;28;20409;-73
2023/05/27 04:06:39;;;;;;;14.67;6.90;;;9.60;99.90;;;;;;5031479;28;20880;-73
2023/05/27 04:09:04;;;;;;;11.93;7.10;;;9.60;99.90;;;;;;5030511;28;20427;-73
2023/05/27 04:11:31;;;;;;;14.50;6.90;;;9.60;99.90;;;;;;5032078;28;20183;-74
2023/05/27 04:13:56;;;;;;;12.20;6.87;;;9.50;99.90;;;;;;5031720;28;20266;-73
2023/05/27 04:16:25;;;;;;;9.33;7.17;;;9.60;99.90;;;;;;5032127;28;20512;-73
2023/05/27 04:18:51;;;;;;;10.97;6.70;;;9.60;99.90;;;;;;5031620;28;20205;-73
2023/05/27 04:21:20;;;;;;;16.33;8.93;;;9.60;99.90;;;;;;5031590;28;20476;-74
2023/05/27 04:23:45;;;;;;;16.87;7.30;;;9.60;99.90;;;;;;5031634;28;20417;-74
2023/05/27 04:26:12;;;;;;;19.83;8.70;;;9.60;99.90;;;;;;5031617;28;20457;-73
2023/05/27 04:28:39;;;;;;;16.30;6.60;;;9.60;99.90;;;;;;5031594;28;20627;-73
2023/05/27 04:31:05;;;;;;;14.10;7.50;;;9.70;99.90;;;;;;5031778;28;20953;-74
2023/05/27 04:33:30;;;;;;;15.80;7.47;;;9.70;99.90;;;;;;5029084;28;20429;-73
2023/05/27 04:35:56;;;;;;;12.67;7.27;;;9.70;99.90;;;;;;5029727;28;20462;-73
2023/05/27 04:38:22;;;;;;;12.50;6.90;;;9.70;99.90;;;;;;5027826;28;20177;-73
2023/05/27 04:40:52;;;;;;;19.03;8.13;;;9.70;99.90;;;;;;5030979;28;20229;-72
2023/05/27 04:43:19;;;;;;;14.77;7.50;;;9.70;99.90;;;;;;5030111;28;20448;-73
2023/05/27 04:45:45;;;;;;;11.53;7.77;;;9.70;99.90;;;;;;5027823;28;20516;-72
2023/05/27 04:48:11;;;;;;;16.37;7.50;;;9.70;99.90;;;;;;5027476;28;20432;-73
2023/05/27 04:50:37;;;;;;;15.53;6.90;;;9.70;99.90;;;;;;5029994;28;20665;-73
2023/05/27 04:53:03;;;;;;;15.20;7.53;;;9.80;99.90;;;;;;5030769;28;20413;-73
2023/05/27 04:55:30;;;;;;;13.50;6.67;;;9.80;99.90;;;;;;5029472;28;20236;-72
2023/05/27 04:57:56;;;;;;;14.30;7.40;;;9.90;99.90;;;;;;5027586;28;20481;-73
2023/05/27 05:00:34;;;;;;;14.60;7.47;;;9.90;99.90;;;;;;5030242;28;20409;-72
2023/05/27 05:03:00;;;;;;;16.00;7.40;;;9.90;99.90;;;;;;5030789;28;20724;-73
2023/05/27 05:05:26;;;;;;;11.77;7.70;;;10.00;99.90;;;;;;5030443;28;20699;-72
2023/05/27 05:07:52;;;;;;;14.07;8.90;;;10.10;99.90;;;;;;5030553;28;20949;-72
2023/05/27 05:10:18;;;;;;;13.77;6.77;;;10.10;99.90;;;;;;5030527;28;20186;-72
2023/05/27 05:12:44;;;;;;;17.80;7.87;;;10.20;99.90;;;;;;5030692;28;20829;-73
2023/05/27 05:15:09;;;;;;;19.47;8.40;;;10.20;99.90;;;;;;5029965;28;20240;-72
2023/05/27 05:17:35;;;;;;;16.00;7.87;;;10.30;99.90;;;;;;5030271;28;20751;-73
2023/05/27 05:20:01;;;;;;;16.77;8.40;;;10.30;99.90;;;;;;5027304;28;20202;-73
2023/05/27 05:22:28;;;;;;;18.90;8.87;;;10.40;99.90;;;;;;5027332;28;20321;-73
2023/05/27 05:24:54;;;;;;;15.33;7.97;;;10.40;99.90;;;;;;5029923;28;20202;-73
2023/05/27 05:27:20;;;;;;;12.07;7.90;;;10.40;99.90;;;;;;5029865;28;20595;-73
2023/05/27 05:29:45;;;;;;;11.00;7.37;;;10.50;99.90;;;;;;5029972;28;20179;-73
2023/05/27 05:32:12;;;;;;;16.87;7.90;;;10.50;99.90;;;;;;5030248;28;20176;-73
2023/05/27 05:34:39;;;;;;;15.53;8.03;;;10.50;99.90;;;;;;5029940;28;20561;-73
2023/05/27 05:37:05;;;;;;;11.47;8.10;;;10.60;99.90;;;;;;5023432;28;20453;-73
2023/05/27 05:39:32;;;;;;;15.00;7.60;;;10.60;99.90;;;;;;5029653;28;20428;-72
2023/05/27 05:41:58;;;;;;;12.13;7.47;;;10.60;99.90;;;;;;5030044;28;20528;-72
2023/05/27 05:44:25;;;;;;;15.63;7.47;;;10.60;99.90;;;;;;5029695;28;20978;-73
2023/05/27 05:46:51;;;;;;;13.20;8.10;;;10.70;99.90;;;;;;5030012;28;20932;-72
2023/05/27 05:49:18;;;;;;;20.63;8.40;;;10.70;99.90;;;;;;5029857;28;20432;-73
2023/05/27 05:51:44;;;;;;;13.10;8.70;;;10.80;99.90;;;;;;5029832;28;20917;-73
2023/05/27 05:54:09;;;;;;;15.67;8.60;;;10.80;99.90;;;;;;5029653;28;20417;-73
2023/05/27 05:56:35;;;;;;;16.10;8.03;;;10.90;99.90;;;;;;5029825;28;20572;-73
2023/05/27 05:59:01;;;;;;;15.23;8.63;;;11.10;99.90;;;;;;5028512;28;20817;-73
2023/05/27 06:01:27;;;;;;;18.57;8.40;;;11.20;99.90;;;;;;5029665;28;20178;-73
2023/05/27 06:03:53;;;;;;;16.03;8.33;;;11.30;99.90;;;;;;5029523;28;20241;-72
2023/05/27 06:06:19;;;;;;;15.57;7.30;;;11.40;99.90;;;;;;5027826;28;20309;-73
2023/05/27 06:08:45;;;;;;;14.50;8.17;;;11.60;99.90;;;;;;5029463;28;20512;-73
2023/05/27 06:11:11;;;;;;;17.60;7.63;;;11.70;99.90;;;;;;5028241;28;20570;-73
2023/05/27 06:13:37;;;;;;;14.37;7.37;;;11.80;99.90;;;;;;5029267;28;20258;-73
2023/05/27 06:16:03;;;;;;;18.63;7.73;;;11.90;99.90;;;;;;5029311;28;20437;-73
2023/05/27 06:18:29;;;;;;;17.27;7.00;;;12.00;99.90;;;;;;5029171;28;20421;-73
2023/05/27 06:20:54;;;;;;;16.87;8.30;;;12.10;99.90;;;;;;5028018;28;21267;-73
2023/05/27 06:23:20;;;;;;;13.00;7.10;;;12.20;99.90;;;;;;5028823;28;20179;-72
2023/05/27 06:25:46;;;;;;;13.47;8.27;;;12.30;99.90;;;;;;5029366;28;20386;-72
2023/05/27 06:28:11;;;;;;;12.90;7.37;;;12.40;99.90;;;;;;5028636;28;20214;-73
2023/05/27 06:30:38;;;;;;;14.73;7.20;;;12.50;99.90;;;;;;5028754;28;20683;-73
2023/05/27 06:33:03;;;;;;;11.00;6.80;;;12.50;99.90;;;;;;5028912;28;20174;-72
2023/05/27 06:35:29;;;;;;;13.23;7.70;;;12.70;99.90;;;;;;5029034;28;20797;-73
2023/05/27 06:37:55;;;;;;;14.73;7.27;;;12.70;99.90;;;;;;5028774;28;20209;-72
2023/05/27 06:40:20;;;;;;;16.33;8.03;;;12.90;99.90;;;;;;5028695;28;20552;-72
2023/05/27 06:42:46;;;;;;;11.30;6.80;;;13.00;99.90;;;;;;5025958;28;20830;-72
2023/05/27 06:45:12;;;;;;;22.40;7.23;;;13.00;99.90;;;;;;5020828;28;20535;-72
2023/05/27 06:47:38;;;;;;;15.40;7.60;;;13.10;99.90;;;;;;5019684;28;20217;-72
2023/05/27 06:50:05;;;;;;;9.83;6.90;;;13.20;99.90;;;;;;5016926;28;20173;-72
2023/05/27 06:52:31;;;;;;;11.60;7.30;;;13.30;99.90;;;;;;5020142;28;20467;-72
2023/05/27 06:54:56;;;;;;;11.27;7.03;;;13.40;99.90;;;;;;5025096;28;20918;-72
2023/05/27 06:57:22;;;;;;;19.60;7.80;;;13.50;99.90;;;;;;5028538;28;20202;-72
2023/05/27 06:59:48;;;;;;;16.70;8.20;;;13.60;99.90;;;;;;5028590;28;20584;-72
2023/05/27 07:02:14;;;;;;;14.20;7.97;;;13.60;99.90;;;;;;5028793;28;20599;-73
2023/05/27 07:04:40;;;;;;;15.30;7.10;;;13.70;99.90;;;;;;5028325;28;20198;-72
2023/05/27 07:07:05;;;;;;;17.63;7.07;;;13.80;99.90;;;;;;5028281;28;20245;-72
2023/05/27 07:09:31;;;;;;;15.37;7.67;;;13.90;99.90;;;;;;5028474;28;20456;-72
2023/05/27 07:11:57;;;;;;;17.07;7.50;;;14.00;99.90;;;;;;5026749;28;20182;-72
2023/05/27 07:14:22;;;;;;;11.50;6.93;;;14.00;99.90;;;;;;5026326;28;20175;-73
2023/05/27 07:16:48;;;;;;;13.43;7.73;;;14.10;99.90;;;;;;5027945;28;20208;-73
2023/05/27 07:19:14;;;;;;;17.60;8.27;;;14.20;99.90;;;;;;5023366;28;20190;-72
2023/05/27 07:21:39;;;;;;;16.40;8.10;;;14.30;99.90;;;;;;5026171;28;20240;-72
2023/05/27 07:24:05;;;;;;;14.67;7.43;;;14.40;99.90;;;;;;5027913;28;20189;-73
2023/05/27 07:26:32;;;;;;;12.20;7.43;;;14.40;99.90;;;;;;5026780;28;20575;-72
2023/05/27 07:28:59;;;;;;;14.77;7.17;;;14.50;99.90;;;;;;5024939;28;20277;-72
2023/05/27 07:31:26;;;;;;;15.63;7.47;;;14.50;99.90;;;;;;5024835;28;20512;-73
2023/05/27 07:33:52;;;;;;;22.10;7.50;;;14.60;99.90;;;;;;5024949;28;20432;-73
2023/05/27 07:36:18;;;;;;;14.23;6.77;;;14.70;99.90;;;;;;5027358;28;20515;-73
2023/05/27 07:38:44;;;;;;;11.60;6.70;;;14.80;99.90;;;;;;5028605;28;20478;-73
2023/05/27 07:41:10;;;;;;;12.37;7.30;;;14.80;99.90;;;;;;5029407;28;20190;-73
2023/05/27 07:43:36;;;;;;;15.50;7.43;;;14.80;99.90;;;;;;5029629;28;20252;-73
2023/05/27 07:46:02;;;;;;;12.47;7.30;;;14.90;99.90;;;;;;5031360;28;20473;-73
2023/05/27 07:48:28;;;;;;;14.43;8.10;;;14.90;99.90;;;;;;5029830;28;20269;-73
2023/05/27 07:50:54;;;;;;;13.80;7.20;;;14.90;99.90;;;;;;5029671;28;20432;-73
2023/05/27 07:53:20;;;;;;;14.97;7.20;;;14.90;99.90;;;;;;5031660;28;20441;-73
2023/05/27 07:55:46;;;;;;;14.57;7.60;;;15.00;99.90;;;;;;5030178;28;20435;-73
2023/05/27 07:58:13;;;;;;;15.00;7.40;;;15.00;99.90;;;;;;5031740;28;20417;-73
2023/05/27 08:00:39;;;;;;;11.10;7.40;;;15.10;99.90;;;;;;5031873;28;20976;-73
2023/05/27 08:03:05;;;;;;;15.27;6.70;;;15.10;99.90;;;;;;5030329;28;20413;-73
2023/05/27 08:05:32;;;;;;;18.50;6.87;;;15.20;99.90;;;;;;5030696;28;20483;-73
2023/05/27 08:07:58;;;;;;;16.23;7.00;;;15.20;99.90;;;;;;5031541;28;20571;-73
2023/05/27 08:10:24;;;;;;;14.37;8.40;;;15.20;99.90;;;;;;5031738;28;20492;-73
2023/05/27 08:12:50;;;;;;;16.07;7.30;;;15.20;99.90;;;;;;5031595;28;20424;-73
2023/05/27 08:15:15;;;;;;;17.53;6.70;;;15.20;99.90;;;;;;5031705;28;20417;-73
2023/05/27 08:17:43;;;;;;;14.00;6.27;;;15.20;99.90;;;;;;5031254;28;20463;-73
2023/05/27 08:20:09;;;;;;;10.53;7.23;;;15.20;99.90;;;;;;5031542;28;20269;-73
2023/05/27 08:22:35;;;;;;;13.30;7.07;;;15.30;99.90;;;;;;5031660;28;20777;-73
2023/05/27 08:25:01;;;;;;;10.30;6.40;;;15.30;99.90;;;;;;5031602;28;20413;-73
2023/05/27 08:27:53;;;;;;;14.33;7.40;;;15.30;99.90;;;;;;5013214;28;20214;-73
2023/05/27 08:30:19;;;;;;;15.10;8.60;;;15.30;99.90;;;;;;5024351;28;20414;-73
2023/05/27 08:32:46;;;;;;;14.07;6.53;;;15.30;99.90;;;;;;5011577;28;20410;-74
2023/05/27 08:35:11;;;;;;;15.00;7.93;;;15.40;99.90;;;;;;5011516;28;20446;-73
2023/05/27 08:37:38;;;;;;;14.53;6.77;;;15.40;99.90;;;;;;5011158;28;20442;-73
2023/05/27 08:40:06;;;;;;;13.80;6.83;;;15.50;99.90;;;;;;5011388;28;20270;-73
2023/05/27 08:42:33;;;;;;;13.97;6.37;;;15.60;99.90;;;;;;5011247;28;20484;-73
2023/05/27 08:45:00;;;;;;;11.50;6.90;;;15.70;99.90;;;;;;5011212;28;20422;-73
2023/05/27 08:47:30;;;;;;;18.27;7.00;;;15.80;99.90;;;;;;5010896;28;20477;-73
2023/05/27 08:49:56;;;;;;;11.53;6.70;;;15.80;99.90;;;;;;5012256;28;20482;-73
2023/05/27 08:52:25;;;;;;;12.07;6.60;;;15.90;99.90;;;;;;5025411;28;20953;-74
2023/05/27 08:54:52;;;;;;;11.70;7.20;;;16.00;99.90;;;;;;5012458;28;20413;-73
2023/05/27 08:57:21;;;;;;;16.90;7.10;;;16.00;99.90;;;;;;5028560;28;20865;-73
2023/05/27 08:59:47;;;;;;;10.37;6.53;;;16.10;99.90;;;;;;5028612;28;20549;-73
2023/05/27 09:02:14;;;;;;;13.20;5.83;;;16.20;99.90;;;;;;5028055;28;20441;-73
2023/05/27 09:04:40;;;;;;;11.30;6.17;;;16.30;99.90;;;;;;5028962;28;20448;-73
2023/05/27 09:07:06;;;;;;;16.40;6.80;;;16.40;99.90;;;;;;5028498;28;20469;-73
2023/05/27 09:09:32;;;;;;;10.97;6.27;;;16.50;99.90;;;;;;5029683;28;20413;-73
2023/05/27 09:12:05;;;;;;;13.03;6.00;;;16.60;99.90;;;;;;5028226;28;20429;-73
2023/05/27 09:14:31;;;;;;;10.20;5.83;;;16.70;99.90;;;;;;5028779;28;20606;-73
2023/05/27 09:17:04;;;;;;;7.67;5.80;;;16.80;99.90;;;;;;5019958;28;20834;-74
2023/05/27 09:19:30;;;;;;;17.00;6.40;;;16.90;99.90;;;;;;5024776;28;20441;-74
2023/05/27 09:21:56;;;;;;;12.47;6.77;;;17.10;99.90;;;;;;5030681;28;20439;-74
2023/05/27 09:24:25;;;;;;;13.10;6.47;;;17.10;99.90;;;;;;5030193;28;20420;-74
2023/05/27 09:26:52;;;;;;;13.90;5.60;;;17.30;99.90;;;;;;5025143;28;20221;-73
2023/05/27 09:29:23;;;;;;;13.17;6.60;;;17.30;99.90;;;;;;5030370;28;20421;-73
2023/05/27 09:31:54;;;;;;;12.20;6.40;;;17.40;99.90;;;;;;5030573;28;20421;-73
2023/05/27 09:34:20;;;;;;;17.50;7.80;;;17.50;99.90;;;;;;5030251;28;20413;-74
2023/05/27 09:36:47;;;;;;;12.83;6.03;;;17.60;99.90;;;;;;5028915;28;20441;-74
2023/05/27 09:39:17;;;;;;;10.63;5.40;;;17.60;99.90;;;;;;5029171;28;20269;-73
2023/05/27 09:41:43;;;;;;;12.20;5.63;;;17.70;99.90;;;;;;5027860;28;20440;-74
2023/05/27 09:44:09;;;;;;;8.47;5.50;;;17.70;99.90;;;;;;5027325;28;20934;-74
2023/05/27 09:46:35;;;;;;;10.17;5.40;;;17.90;99.90;;;;;;5029732;28;20279;-73
2023/05/27 09:49:03;;;;;;;12.57;5.50;;;18.00;99.90;;;;;;5029659;28;20417;-73
2023/05/27 09:51:32;;;;;;;11.70;5.50;;;18.00;99.90;;;;;;5029907;28;20444;-73
2023/05/27 09:53:58;;;;;;;14.40;6.27;;;18.00;99.90;;;;;;5027925;28;20450;-73
2023/05/27 09:56:29;;;;;;;14.10;5.93;;;18.10;99.90;;;;;;5028534;28;20441;-73
2023/05/27 09:58:56;;;;;;;9.87;5.20;;;18.10;99.90;;;;;;5029536;28;20422;-73
2023/05/27 10:01:28;;;;;;;15.20;5.83;;;18.20;99.90;;;;;;5028180;28;20972;-73
2023/05/27 10:03:58;;;;;;;12.30;5.33;;;18.30;99.90;;;;;;5028932;28;20425;-73
2023/05/27 10:06:24;;;;;;;14.97;5.70;;;18.30;99.90;;;;;;5029036;28;20806;-73
2023/05/27 10:08:52;;;;;;;10.43;6.03;;;18.30;99.90;;;;;;5027916;28;20781;-73
2023/05/27 10:11:18;;;;;;;15.50;6.20;;;18.40;99.90;;;;;;5029636;28;20414;-73
2023/05/27 10:13:45;;;;;;;14.90;5.50;;;18.40;99.90;;;;;;5029298;28;20405;-73
2023/05/27 10:16:24;;;;;;;9.83;5.10;;;18.40;99.90;;;;;;5028282;28;20425;-73
2023/05/27 10:18:54;;;;;;;11.13;5.43;;;18.50;99.90;;;;;;5011551;28;20511;-73
2023/05/27 10:21:20;;;;;;;9.37;5.20;;;18.50;99.80;;;;;;5029041;28;20455;-73
2023/05/27 10:23:56;;;;;;;11.40;5.27;;;18.60;99.70;;;;;;5027789;28;20417;-73
2023/05/27 10:26:42;;;;;;;10.33;5.03;;;18.60;98.80;;;;;;5029312;28;20460;-73
2023/05/27 10:29:13;;;;;;;9.20;4.40;;;18.70;99.10;;;;;;5029258;28;20421;-73
2023/05/27 10:31:46;;;;;;;10.07;4.13;;;18.80;99.60;;;;;;5029112;28;20483;-73
2023/05/27 10:34:12;;;;;;;9.30;4.63;;;18.90;98.70;;;;;;5029135;28;20413;-74
2023/05/27 10:36:38;;;;;;;10.10;4.90;;;18.90;98.50;;;;;;5029072;28;20445;-73
2023/05/27 10:39:17;;;;;;;5.47;4.07;;;19.00;99.30;;;;;;5028924;28;20179;-73
2023/05/27 10:41:50;;;;;;;8.80;5.57;;;19.10;98.20;;;;;;5029332;28;20805;-73
2023/05/27 10:44:28;;;;;;;8.60;4.67;;;19.10;96.90;;;;;;5029026;28;20421;-73
2023/05/27 10:47:03;;;;;;;10.27;4.90;;;19.10;98.30;;;;;;5029200;28;20468;-73
2023/05/27 10:49:35;;;;;;;8.00;4.50;;;19.20;98.70;;;;;;5028943;28;20420;-73
2023/05/27 10:52:15;;;;;;;11.37;5.13;;;19.20;97.90;;;;;;5029840;28;20579;-73
2023/05/27 10:54:48;;;;;;;6.77;4.57;;;19.30;98.00;;;;;;5027011;28;20516;-73
2023/05/27 10:57:14;;;;;;;10.83;5.30;;;19.30;99.10;;;;;;5028617;28;20824;-74
2023/05/27 10:59:49;;;;;;;12.43;4.70;;;19.30;98.00;;;;;;5028270;28;20437;-73
2023/05/27 11:02:15;;;;;;;7.93;4.33;;;19.20;97.00;;;;;;5028048;28;20424;-73
2023/05/27 11:04:42;;;;;;;12.73;5.17;;;19.30;98.30;;;;;;5027130;28;20450;-74
2023/05/27 11:07:07;;;;;;;7.30;4.73;;;19.40;97.60;;;;;;5028265;28;20949;-73
2023/05/27 11:10:04;;;;;;;8.50;5.10;;;19.40;98.60;;;;;;5027077;28;20447;-73
2023/05/27 11:12:31;;;;;;;14.83;6.00;;;19.40;98.30;;;;;;5027240;28;20463;-74
2023/05/27 11:14:56;;;;;;;10.10;5.03;;;19.50;98.50;;;;;;5027715;28;20504;-74
2023/05/27 11:17:23;;;;;;;8.73;4.57;;;19.60;98.80;;;;;;5028098;28;21064;-74
2023/05/27 11:19:49;;;;;;;10.90;5.67;;;19.60;98.70;;;;;;5028411;28;20171;-73
2023/05/27 11:22:16;;;;;;;12.70;6.23;;;19.70;99.20;;;;;;5027364;28;20801;-73
2023/05/27 11:24:43;;;;;;;12.10;5.97;;;19.80;99.30;;;;;;5027565;28;20606;-74
2023/05/27 11:27:13;;;;;;;10.00;5.17;;;19.80;98.60;;;;;;5027269;28;20461;-74
2023/05/27 11:29:39;;;;;;;9.03;5.07;;;19.80;98.50;;;;;;5025217;28;20436;-73
2023/05/27 11:32:06;;;;;;;10.90;5.47;;;19.80;99.00;;;;;;5025582;28;20429;-73
2023/05/27 11:34:36;;;;;;;11.53;6.20;;;19.90;98.90;;;;;;5025266;28;20862;-73
2023/05/27 11:37:05;;;;;;;9.83;5.40;;;19.90;98.60;;;;;;5028105;28;20441;-73
2023/05/27 11:39:31;;;;;;;9.13;4.93;;;19.90;98.40;;;;;;5027048;28;20437;-74
2023/05/27 11:41:58;;;;;;;11.47;5.20;;;19.90;97.90;;;;;;5028616;28;20432;-74
2023/05/27 11:44:25;;;;;;;11.43;5.63;;;19.90;98.10;;;;;;5028383;28;20409;-74
2023/05/27 11:46:58;;;;;;;9.47;5.10;;;19.90;97.70;;;;;;5026946;28;20475;-74
2023/05/27 11:49:24;;;;;;;12.40;5.60;;;20.00;97.50;;;;;;5027164;28;20882;-73
2023/05/27 11:51:50;;;;;;;12.00;5.27;;;20.00;96.50;;;;;;5028475;28;20401;-73
2023/05/27 11:54:25;;;;;;;9.87;5.13;;;19.90;98.20;;;;;;5027983;28;20181;-74
2023/05/27 11:56:53;;;;;;;9.87;5.27;;;20.00;98.40;;;;;;5027920;28;20294;-73
2023/05/27 11:59:20;;;;;;;7.23;5.10;;;20.10;98.00;;;;;;5028133;28;20885;-73
2023/05/27 12:01:46;;;;;;;10.93;5.93;;;20.20;98.00;;;;;;5028326;28;20427;-74
2023/05/27 12:04:12;;;;;;;7.73;5.30;;;20.20;96.90;;;;;;5028000;28;20957;-73
2023/05/27 12:06:38;;;;;;;9.50;5.23;;;20.20;98.30;;;;;;5027973;28;20500;-73
2023/05/27 12:09:08;;;;;;;9.30;5.00;;;20.30;98.10;;;;;;5028215;28;20240;-73
2023/05/27 12:11:34;;;;;;;11.43;6.73;;;20.30;97.30;;;;;;5027773;28;20409;-73
2023/05/27 12:14:00;;;;;;;9.70;4.80;;;20.30;97.80;;;;;;5027975;28;20449;-74
2023/05/27 12:16:26;;;;;;;8.03;4.60;;;20.40;96.50;;;;;;5027996;28;20495;-73
2023/05/27 12:18:52;;;;;;;7.03;5.27;;;20.40;96.80;;;;;;5027756;28;20845;-73
2023/05/27 12:21:19;;;;;;;9.13;5.00;;;20.30;97.30;;;;;;5027616;28;20194;-73
2023/05/27 12:23:45;;;;;;;9.60;5.80;;;20.30;96.10;;;;;;5027668;28;20183;-74
2023/05/27 12:26:13;;;;;;;11.47;5.70;;;20.40;98.00;;;;;;5029208;28;20436;-73
2023/05/27 12:28:39;;;;;;;6.87;4.30;;;20.50;97.30;;;;;;5030257;28;20436;-73
2023/05/27 12:31:04;;;;;;;12.10;5.50;;;20.60;97.80;;;;;;5028964;28;20518;-73
2023/05/27 12:33:31;;;;;;;8.73;5.30;;;20.60;96.40;;;;;;5027109;28;20433;-74
2023/05/27 12:36:00;;;;;;;6.10;4.47;;;20.60;95.60;;;;;;5031401;28;20198;-73
2023/05/27 12:38:26;;;;;;;8.43;4.70;;;20.70;96.90;;;;;;5027419;28;20779;-74
2023/05/27 12:40:52;;;;;;;9.37;5.37;;;20.70;96.00;;;;;;5027258;28;20424;-73